sensor_id;sensor_type;location;lat;lon;timestamp;pressure;altitude;pressure_sealevel;temperature;humidity
10474;BME280;5284;50.446;7.904;2023-05-09T00:04:05;98717.06;;;13.13;100.00
10474;BME280;5284;50.446;7.904;2023-05-09T00:09:08;98719.47;;;13.16;100.00
10474;BME280;5284;50.446;7.904;2023-05-09T00:14:12;98720.88;;;13.20;100.00
10474;BME280;5284;50.446;7.904;2023-05-09T00:19:15;98718.34;;;13.28;100.00
10474;BME280;5284;50.446;7.904;2023-05-09T00:24:18;98712.41;;;13.34;100.00
10474;BME280;5284;50.446;7.904;2023-05-09T00:29:23;98705.91;;;13.36;100.00
10474;BME280;5284;50.446;7.904;2023-05-09T00:34:25;98706.75;;;13.37;100.00
10474;BME280;5284;50.446;7.904;2023-05-09T00:39:28;98689.69;;;13.38;100.00
10474;BME280;5284;50.446;7.904;2023-05-09T00:44:32;98691.53;;;13.37;100.00
10474;BME280;5284;50.446;7.904;2023-05-09T00:49:35;98682.94;;;13.34;100.00
10474;BME280;5284;50.446;7.904;2023-05-09T00:54:38;98679.41;;;13.33;100.00
10474;BME280;5284;50.446;7.904;2023-05-09T00:59:43;98663.34;;;13.33;100.00
10474;BME280;5284;50.446;7.904;2023-05-09T01:04:46;98665.19;;;13.33;100.00
10474;BME280;5284;50.446;7.904;2023-05-09T01:09:55;98656.00;;;13.35;100.00
10474;BME280;5284;50.446;7.904;2023-05-09T01:15:08;98646.03;;;13.28;100.00
10474;BME280;5284;50.446;7.904;2023-05-09T01:20:19;98648.25;;;13.23;100.00
10474;BME280;5284;50.446;7.904;2023-05-09T01:25:45;98643.19;;;13.20;100.00
10474;BME280;5284;50.446;7.904;2023-05-09T01:30:53;98627.13;;;13.20;100.00
10474;BME280;5284;50.446;7.904;2023-05-09T01:36:00;98626.84;;;13.23;100.00
10474;BME280;5284;50.446;7.904;2023-05-09T01:41:04;98632.06;;;13.24;100.00
10474;BME280;5284;50.446;7.904;2023-05-09T01:46:11;98635.31;;;13.28;100.00
10474;BME280;5284;50.446;7.904;2023-05-09T01:51:15;98634.72;;;13.34;100.00
10474;BME280;5284;50.446;7.904;2023-05-09T01:56:20;98631.75;;;13.37;100.00
10474;BME280;5284;50.446;7.904;2023-05-09T02:01:25;98632.97;;;13.42;100.00
10474;BME280;5284;50.446;7.904;2023-05-09T02:06:29;98635.25;;;13.47;100.00
10474;BME280;5284;50.446;7.904;2023-05-09T02:11:33;98641.16;;;13.50;100.00
10474;BME280;5284;50.446;7.904;2023-05-09T02:16:37;98628.59;;;13.51;100.00
10474;BME280;5284;50.446;7.904;2023-05-09T02:21:41;98633.81;;;13.52;100.00
10474;BME280;5284;50.446;7.904;2023-05-09T02:26:44;98623.09;;;13.52;100.00
10474;BME280;5284;50.446;7.904;2023-05-09T02:31:49;98620.84;;;13.48;100.00
10474;BME280;5284;50.446;7.904;2023-05-09T02:36:53;98617.03;;;13.50;100.00
10474;BME280;5284;50.446;7.904;2023-05-09T02:41:56;98611.28;;;13.45;100.00
10474;BME280;5284;50.446;7.904;2023-05-09T02:47:05;98597.91;;;13.45;100.00
10474;BME280;5284;50.446;7.904;2023-05-09T02:52:09;98605.47;;;13.50;100.00
10474;BME280;5284;50.446;7.904;2023-05-09T02:57:12;98608.03;;;13.51;100.00
10474;BME280;5284;50.446;7.904;2023-05-09T03:02:16;98597.31;;;13.51;100.00
10474;BME280;5284;50.446;7.904;2023-05-09T03:07:21;98600.38;;;13.56;100.00
10474;BME280;5284;50.446;7.904;2023-05-09T03:12:23;98598.41;;;13.58;100.00
10474;BME280;5284;50.446;7.904;2023-05-09T03:17:30;98592.16;;;13.58;100.00
10474;BME280;5284;50.446;7.904;2023-05-09T03:22:33;98589.50;;;13.58;100.00
10474;BME280;5284;50.446;7.904;2023-05-09T03:27:39;98590.34;;;13.58;100.00
10474;BME280;5284;50.446;7.904;2023-05-09T03:32:47;98581.47;;;13.58;100.00
10474;BME280;5284;50.446;7.904;2023-05-09T03:37:50;98571.72;;;13.57;100.00
10474;BME280;5284;50.446;7.904;2023-05-09T03:42:53;98564.16;;;13.52;100.00
10474;BME280;5284;50.446;7.904;2023-05-09T03:47:57;98560.09;;;13.48;100.00
10474;BME280;5284;50.446;7.904;2023-05-09T03:53:00;98560.22;;;13.47;100.00
10474;BME280;5284;50.446;7.904;2023-05-09T03:58:05;98558.84;;;13.43;100.00
10474;BME280;5284;50.446;7.904;2023-05-09T04:03:12;98558.69;;;13.44;100.00
10474;BME280;5284;50.446;7.904;2023-05-09T04:08:19;98563.47;;;13.50;100.00
10474;BME280;5284;50.446;7.904;2023-05-09T04:20:07;98554.09;;;13.64;100.00
10474;BME280;5284;50.446;7.904;2023-05-09T04:25:11;98555.22;;;13.61;100.00
10474;BME280;5284;50.446;7.904;2023-05-09T04:30:16;98553.91;;;13.65;100.00
10474;BME280;5284;50.446;7.904;2023-05-09T04:35:22;98544.59;;;13.69;100.00
10474;BME280;5284;50.446;7.904;2023-05-09T04:40:26;98545.84;;;13.74;100.00
10474;BME280;5284;50.446;7.904;2023-05-09T04:45:33;98542.72;;;13.79;100.00
10474;BME280;5284;50.446;7.904;2023-05-09T04:50:37;98540.72;;;13.81;100.00
10474;BME280;5284;50.446;7.904;2023-05-09T04:55:40;98530.41;;;13.86;100.00
10474;BME280;5284;50.446;7.904;2023-05-09T05:00:43;98533.47;;;13.91;100.00
10474;BME280;5284;50.446;7.904;2023-05-09T05:05:51;98521.00;;;13.99;100.00
10474;BME280;5284;50.446;7.904;2023-05-09T05:10:54;98521.69;;;14.01;100.00
10474;BME280;5284;50.446;7.904;2023-05-09T05:15:57;98511.63;;;14.03;100.00
10474;BME280;5284;50.446;7.904;2023-05-09T05:21:02;98517.38;;;14.08;100.00
10474;BME280;5284;50.446;7.904;2023-05-09T05:26:06;98508.63;;;14.16;100.00
10474;BME280;5284;50.446;7.904;2023-05-09T05:31:10;98512.59;;;14.29;100.00
10474;BME280;5284;50.446;7.904;2023-05-09T05:36:15;98514.03;;;14.41;100.00
10474;BME280;5284;50.446;7.904;2023-05-09T05:41:19;98503.22;;;14.51;100.00
10474;BME280;5284;50.446;7.904;2023-05-09T05:46:23;98504.50;;;14.64;100.00
10474;BME280;5284;50.446;7.904;2023-05-09T05:51:29;98502.00;;;14.71;100.00
10474;BME280;5284;50.446;7.904;2023-05-09T05:56:36;98495.53;;;14.56;100.00
10474;BME280;5284;50.446;7.904;2023-05-09T06:01:40;98496.31;;;14.48;100.00
10474;BME280;5284;50.446;7.904;2023-05-09T06:06:45;98507.47;;;14.61;100.00
10474;BME280;5284;50.446;7.904;2023-05-09T06:11:48;98502.59;;;14.57;100.00
10474;BME280;5284;50.446;7.904;2023-05-09T06:16:53;98494.91;;;14.62;100.00
10474;BME280;5284;50.446;7.904;2023-05-09T06:21:59;98479.06;;;14.76;100.00
10474;BME280;5284;50.446;7.904;2023-05-09T06:27:03;98486.81;;;14.79;100.00
10474;BME280;5284;50.446;7.904;2023-05-09T06:32:06;98471.06;;;14.84;100.00
10474;BME280;5284;50.446;7.904;2023-05-09T06:37:11;98474.91;;;15.07;100.00
10474;BME280;5284;50.446;7.904;2023-05-09T06:42:17;98455.25;;;15.32;100.00
10474;BME280;5284;50.446;7.904;2023-05-09T06:47:22;98448.44;;;15.61;100.00
10474;BME280;5284;50.446;7.904;2023-05-09T06:52:29;98438.25;;;15.89;100.00
10474;BME280;5284;50.446;7.904;2023-05-09T06:57:32;98433.75;;;16.37;100.00
10474;BME280;5284;50.446;7.904;2023-05-09T07:02:35;98431.88;;;16.78;100.00
10474;BME280;5284;50.446;7.904;2023-05-09T07:07:44;98431.41;;;16.50;100.00
10474;BME280;5284;50.446;7.904;2023-05-09T07:12:47;98427.31;;;16.78;100.00
10474;BME280;5284;50.446;7.904;2023-05-09T07:17:52;98408.50;;;16.62;100.00
10474;BME280;5284;50.446;7.904;2023-05-09T07:22:57;98398.94;;;16.44;100.00
10474;BME280;5284;50.446;7.904;2023-05-09T07:28:01;98398.25;;;16.50;100.00
10474;BME280;5284;50.446;7.904;2023-05-09T07:33:05;98393.13;;;16.87;100.00
10474;BME280;5284;50.446;7.904;2023-05-09T07:38:11;98389.03;;;16.98;100.00
10474;BME280;5284;50.446;7.904;2023-05-09T07:43:15;98383.31;;;17.40;100.00
10474;BME280;5284;50.446;7.904;2023-05-09T07:48:18;98372.88;;;17.37;100.00
10474;BME280;5284;50.446;7.904;2023-05-09T07:53:22;98373.06;;;17.88;100.00
10474;BME280;5284;50.446;7.904;2023-05-09T07:58:25;98354.09;;;18.41;100.00
10474;BME280;5284;50.446;7.904;2023-05-09T08:03:30;98349.28;;;18.80;100.00
10474;BME280;5284;50.446;7.904;2023-05-09T08:08:36;98343.19;;;19.07;100.00
10474;BME280;5284;50.446;7.904;2023-05-09T08:13:39;98340.78;;;18.83;100.00
10474;BME280;5284;50.446;7.904;2023-05-09T08:18:45;98329.13;;;18.82;100.00
10474;BME280;5284;50.446;7.904;2023-05-09T08:23:53;98318.13;;;18.04;100.00
10474;BME280;5284;50.446;7.904;2023-05-09T08:28:56;98323.13;;;17.70;100.00
10474;BME280;5284;50.446;7.904;2023-05-09T08:33:59;98322.69;;;17.58;100.00
10474;BME280;5284;50.446;7.904;2023-05-09T08:39:06;98316.13;;;17.61;100.00
10474;BME280;5284;50.446;7.904;2023-05-09T08:44:10;98318.91;;;17.45;100.00
10474;BME280;5284;50.446;7.904;2023-05-09T08:49:13;98313.72;;;17.66;100.00
10474;BME280;5284;50.446;7.904;2023-05-09T08:54:19;98290.84;;;17.99;100.00
10474;BME280;5284;50.446;7.904;2023-05-09T08:59:23;98287.41;;;17.45;100.00
10474;BME280;5284;50.446;7.904;2023-05-09T09:04:28;98293.69;;;16.99;100.00
10474;BME280;5284;50.446;7.904;2023-05-09T09:09:34;98289.47;;;16.75;100.00
10474;BME280;5284;50.446;7.904;2023-05-09T09:14:42;98287.38;;;16.85;100.00
10474;BME280;5284;50.446;7.904;2023-05-09T09:19:48;98278.03;;;16.73;100.00
10474;BME280;5284;50.446;7.904;2023-05-09T09:24:53;98267.56;;;16.78;100.00
10474;BME280;5284;50.446;7.904;2023-05-09T09:30:05;98272.19;;;16.61;100.00
10474;BME280;5284;50.446;7.904;2023-05-09T09:35:10;98268.94;;;16.74;100.00
10474;BME280;5284;50.446;7.904;2023-05-09T09:40:16;98259.47;;;17.08;100.00
10474;BME280;5284;50.446;7.904;2023-05-09T09:45:19;98251.00;;;17.19;100.00
10474;BME280;5284;50.446;7.904;2023-05-09T09:50:22;98242.25;;;17.62;100.00
10474;BME280;5284;50.446;7.904;2023-05-09T09:55:27;98227.75;;;17.63;100.00
10474;BME280;5284;50.446;7.904;2023-05-09T10:00:30;98224.41;;;18.12;100.00
10474;BME280;5284;50.446;7.904;2023-05-09T10:05:35;98217.81;;;18.58;100.00
10474;BME280;5284;50.446;7.904;2023-05-09T10:10:45;98203.50;;;18.29;100.00
10474;BME280;5284;50.446;7.904;2023-05-09T10:15:49;98198.16;;;17.92;100.00
10474;BME280;5284;50.446;7.904;2023-05-09T10:20:55;98197.97;;;17.56;100.00
10474;BME280;5284;50.446;7.904;2023-05-09T10:26:10;98194.16;;;17.88;100.00
10474;BME280;5284;50.446;7.904;2023-05-09T10:31:20;98193.13;;;17.52;100.00
10474;BME280;5284;50.446;7.904;2023-05-09T10:36:25;98181.72;;;17.64;100.00
10474;BME280;5284;50.446;7.904;2023-05-09T10:41:30;98177.91;;;17.59;100.00
10474;BME280;5284;50.446;7.904;2023-05-09T10:46:35;98178.84;;;17.66;100.00
10474;BME280;5284;50.446;7.904;2023-05-09T10:51:40;98176.28;;;17.50;100.00
10474;BME280;5284;50.446;7.904;2023-05-09T10:56:44;98175.59;;;17.33;100.00
10474;BME280;5284;50.446;7.904;2023-05-09T11:01:56;98172.84;;;17.19;100.00
10474;BME280;5284;50.446;7.904;2023-05-09T11:07:20;98167.94;;;17.59;100.00
10474;BME280;5284;50.446;7.904;2023-05-09T11:12:25;98156.50;;;18.73;100.00
10474;BME280;5284;50.446;7.904;2023-05-09T11:17:28;98149.59;;;19.27;100.00
10474;BME280;5284;50.446;7.904;2023-05-09T11:22:38;98142.50;;;19.26;100.00
10474;BME280;5284;50.446;7.904;2023-05-09T11:27:45;98136.78;;;19.35;100.00
10474;BME280;5284;50.446;7.904;2023-05-09T11:32:50;98131.91;;;19.24;100.00
10474;BME280;5284;50.446;7.904;2023-05-09T11:37:58;98114.84;;;19.09;100.00
10474;BME280;5284;50.446;7.904;2023-05-09T11:43:05;98102.88;;;19.67;100.00
10474;BME280;5284;50.446;7.904;2023-05-09T11:48:12;98101.06;;;20.48;100.00
10474;BME280;5284;50.446;7.904;2023-05-09T11:53:15;98087.88;;;20.38;100.00
10474;BME280;5284;50.446;7.904;2023-05-09T11:58:21;98078.97;;;20.44;100.00
10474;BME280;5284;50.446;7.904;2023-05-09T12:03:24;98064.00;;;20.68;100.00
10474;BME280;5284;50.446;7.904;2023-05-09T12:08:29;98064.75;;;20.36;100.00
10474;BME280;5284;50.446;7.904;2023-05-09T12:13:33;98060.75;;;21.18;100.00
10474;BME280;5284;50.446;7.904;2023-05-09T12:18:36;98055.66;;;20.56;100.00
10474;BME280;5284;50.446;7.904;2023-05-09T12:23:39;98052.97;;;20.76;100.00
10474;BME280;5284;50.446;7.904;2023-05-09T12:28:47;98039.47;;;21.34;100.00
10474;BME280;5284;50.446;7.904;2023-05-09T12:33:50;98026.94;;;21.07;100.00
10474;BME280;5284;50.446;7.904;2023-05-09T12:38:53;98011.53;;;20.88;100.00
10474;BME280;5284;50.446;7.904;2023-05-09T12:43:58;98001.72;;;21.07;100.00
10474;BME280;5284;50.446;7.904;2023-05-09T12:49:02;97998.56;;;21.03;100.00
10474;BME280;5284;50.446;7.904;2023-05-09T12:54:07;97993.47;;;20.35;100.00
10474;BME280;5284;50.446;7.904;2023-05-09T12:59:12;97993.72;;;19.94;100.00
10474;BME280;5284;50.446;7.904;2023-05-09T13:04:18;97995.91;;;19.37;100.00
10474;BME280;5284;50.446;7.904;2023-05-09T13:09:24;97986.81;;;19.44;100.00
10474;BME280;5284;50.446;7.904;2023-05-09T13:14:29;97979.25;;;19.06;100.00
10474;BME280;5284;50.446;7.904;2023-05-09T13:19:32;97965.13;;;18.55;100.00
10474;BME280;5284;50.446;7.904;2023-05-09T13:24:40;97959.38;;;18.65;100.00
10474;BME280;5284;50.446;7.904;2023-05-09T13:29:44;97957.34;;;18.94;100.00
10474;BME280;5284;50.446;7.904;2023-05-09T13:34:48;97966.31;;;19.01;100.00
10474;BME280;5284;50.446;7.904;2023-05-09T13:39:51;97953.25;;;18.77;100.00
10474;BME280;5284;50.446;7.904;2023-05-09T13:44:56;97953.22;;;18.50;100.00
10474;BME280;5284;50.446;7.904;2023-05-09T13:49:59;97944.72;;;18.32;100.00
10474;BME280;5284;50.446;7.904;2023-05-09T13:55:02;97941.78;;;18.13;100.00
10474;BME280;5284;50.446;7.904;2023-05-09T14:00:08;97931.22;;;18.11;100.00
10474;BME280;5284;50.446;7.904;2023-05-09T14:05:15;97931.56;;;17.87;100.00
10474;BME280;5284;50.446;7.904;2023-05-09T14:10:18;97922.56;;;17.80;100.00
10474;BME280;5284;50.446;7.904;2023-05-09T14:15:22;97909.47;;;17.77;100.00
10474;BME280;5284;50.446;7.904;2023-05-09T14:20:26;97906.72;;;17.92;100.00
10474;BME280;5284;50.446;7.904;2023-05-09T14:25:29;97902.13;;;17.92;100.00
10474;BME280;5284;50.446;7.904;2023-05-09T14:30:33;97893.75;;;17.66;100.00
10474;BME280;5284;50.446;7.904;2023-05-09T14:35:38;97879.41;;;17.80;100.00
10474;BME280;5284;50.446;7.904;2023-05-09T14:40:42;97869.69;;;17.65;100.00
10474;BME280;5284;50.446;7.904;2023-05-09T14:45:46;97874.22;;;17.64;100.00
10474;BME280;5284;50.446;7.904;2023-05-09T14:50:50;97864.22;;;17.58;100.00
10474;BME280;5284;50.446;7.904;2023-05-09T14:55:57;97864.81;;;17.54;100.00
10474;BME280;5284;50.446;7.904;2023-05-09T15:01:01;97857.91;;;17.51;100.00
10474;BME280;5284;50.446;7.904;2023-05-09T15:06:04;97849.66;;;17.53;100.00
10474;BME280;5284;50.446;7.904;2023-05-09T15:11:07;97846.22;;;17.65;100.00
10474;BME280;5284;50.446;7.904;2023-05-09T15:16:17;97835.06;;;17.47;100.00
10474;BME280;5284;50.446;7.904;2023-05-09T15:21:20;97835.88;;;17.48;100.00
10474;BME280;5284;50.446;7.904;2023-05-09T15:26:25;97831.88;;;17.44;100.00
10474;BME280;5284;50.446;7.904;2023-05-09T15:31:32;97811.34;;;17.28;100.00
10474;BME280;5284;50.446;7.904;2023-05-09T15:36:36;97808.25;;;17.10;100.00
10474;BME280;5284;50.446;7.904;2023-05-09T15:41:40;97806.00;;;17.14;100.00
10474;BME280;5284;50.446;7.904;2023-05-09T15:46:46;97800.31;;;17.23;100.00
10474;BME280;5284;50.446;7.904;2023-05-09T15:51:49;97795.75;;;17.38;100.00
10474;BME280;5284;50.446;7.904;2023-05-09T15:56:52;97798.25;;;17.25;100.00
10474;BME280;5284;50.446;7.904;2023-05-09T16:01:56;97787.69;;;17.38;100.00
10474;BME280;5284;50.446;7.904;2023-05-09T16:06:59;97780.97;;;17.34;100.00
10474;BME280;5284;50.446;7.904;2023-05-09T16:12:03;97774.25;;;17.30;100.00
10474;BME280;5284;50.446;7.904;2023-05-09T16:17:07;97770.91;;;17.28;100.00
10474;BME280;5284;50.446;7.904;2023-05-09T16:22:10;97764.28;;;17.10;100.00
10474;BME280;5284;50.446;7.904;2023-05-09T16:27:14;97767.19;;;17.08;100.00
10474;BME280;5284;50.446;7.904;2023-05-09T16:32:20;97759.56;;;16.97;100.00
10474;BME280;5284;50.446;7.904;2023-05-09T16:37:23;97755.59;;;16.93;100.00
10474;BME280;5284;50.446;7.904;2023-05-09T16:42:29;97755.22;;;16.96;100.00
10474;BME280;5284;50.446;7.904;2023-05-09T16:47:33;97754.41;;;16.96;100.00
10474;BME280;5284;50.446;7.904;2023-05-09T16:52:37;97748.16;;;16.95;100.00
10474;BME280;5284;50.446;7.904;2023-05-09T16:57:40;97744.81;;;16.93;100.00
10474;BME280;5284;50.446;7.904;2023-05-09T17:02:44;97744.38;;;16.90;100.00
10474;BME280;5284;50.446;7.904;2023-05-09T17:07:47;97747.91;;;16.90;100.00
10474;BME280;5284;50.446;7.904;2023-05-09T17:12:50;97746.50;;;16.94;100.00
10474;BME280;5284;50.446;7.904;2023-05-09T17:17:55;97744.81;;;16.93;100.00
10474;BME280;5284;50.446;7.904;2023-05-09T17:22:58;97744.75;;;16.87;100.00
10474;BME280;5284;50.446;7.904;2023-05-09T17:28:01;97736.63;;;16.66;100.00
10474;BME280;5284;50.446;7.904;2023-05-09T17:33:05;97745.88;;;16.64;100.00
10474;BME280;5284;50.446;7.904;2023-05-09T17:38:08;97739.78;;;16.55;100.00
10474;BME280;5284;50.446;7.904;2023-05-09T17:43:11;97741.31;;;16.21;100.00
10474;BME280;5284;50.446;7.904;2023-05-09T17:48:16;97736.84;;;15.99;100.00
10474;BME280;5284;50.446;7.904;2023-05-09T17:53:19;97734.50;;;15.81;100.00
10474;BME280;5284;50.446;7.904;2023-05-09T17:58:22;97733.94;;;15.71;100.00
10474;BME280;5284;50.446;7.904;2023-05-09T18:03:28;97733.22;;;15.55;100.00
10474;BME280;5284;50.446;7.904;2023-05-09T18:08:32;97727.81;;;15.40;100.00
10474;BME280;5284;50.446;7.904;2023-05-09T18:13:37;97726.69;;;15.35;100.00
10474;BME280;5284;50.446;7.904;2023-05-09T18:18:41;97728.91;;;15.32;100.00
10474;BME280;5284;50.446;7.904;2023-05-09T18:23:46;97728.81;;;15.17;100.00
10474;BME280;5284;50.446;7.904;2023-05-09T18:28:48;97724.97;;;15.12;100.00
10474;BME280;5284;50.446;7.904;2023-05-09T18:33:53;97714.13;;;15.05;100.00
10474;BME280;5284;50.446;7.904;2023-05-09T18:38:57;97721.22;;;14.98;100.00
10474;BME280;5284;50.446;7.904;2023-05-09T18:44:00;97705.63;;;14.94;100.00
10474;BME280;5284;50.446;7.904;2023-05-09T18:49:06;97713.84;;;14.92;100.00
10474;BME280;5284;50.446;7.904;2023-05-09T18:54:10;97711.38;;;14.91;100.00
10474;BME280;5284;50.446;7.904;2023-05-09T18:59:14;97706.72;;;14.85;100.00
10474;BME280;5284;50.446;7.904;2023-05-09T19:04:19;97713.56;;;14.87;100.00
10474;BME280;5284;50.446;7.904;2023-05-09T19:09:22;97714.28;;;14.81;100.00
10474;BME280;5284;50.446;7.904;2023-05-09T19:14:25;97723.50;;;14.79;100.00
10474;BME280;5284;50.446;7.904;2023-05-09T19:19:30;97725.16;;;14.80;100.00
10474;BME280;5284;50.446;7.904;2023-05-09T19:24:34;97724.50;;;14.78;100.00
10474;BME280;5284;50.446;7.904;2023-05-09T19:29:38;97721.66;;;14.79;100.00
10474;BME280;5284;50.446;7.904;2023-05-09T19:34:45;97729.22;;;14.76;100.00
10474;BME280;5284;50.446;7.904;2023-05-09T19:39:49;97727.75;;;14.73;100.00
10474;BME280;5284;50.446;7.904;2023-05-09T19:44:52;97723.75;;;14.69;100.00
10474;BME280;5284;50.446;7.904;2023-05-09T19:49:58;97723.59;;;14.63;100.00
10474;BME280;5284;50.446;7.904;2023-05-09T19:55:04;97721.78;;;14.63;100.00
10474;BME280;5284;50.446;7.904;2023-05-09T20:00:08;97716.03;;;14.66;100.00
10474;BME280;5284;50.446;7.904;2023-05-09T20:05:14;97704.97;;;14.61;100.00
10474;BME280;5284;50.446;7.904;2023-05-09T20:10:19;97709.69;;;14.59;100.00
10474;BME280;5284;50.446;7.904;2023-05-09T20:15:22;97707.19;;;14.58;100.00
10474;BME280;5284;50.446;7.904;2023-05-09T20:20:28;97702.53;;;14.52;100.00
10474;BME280;5284;50.446;7.904;2023-05-09T20:25:32;97693.63;;;14.51;100.00
10474;BME280;5284;50.446;7.904;2023-05-09T20:30:35;97693.16;;;14.48;100.00
10474;BME280;5284;50.446;7.904;2023-05-09T20:35:40;97692.31;;;14.47;100.00
10474;BME280;5284;50.446;7.904;2023-05-09T20:40:44;97687.59;;;14.49;100.00
10474;BME280;5284;50.446;7.904;2023-05-09T20:45:47;97683.09;;;14.50;100.00
10474;BME280;5284;50.446;7.904;2023-05-09T20:50:52;97675.69;;;14.52;100.00
10474;BME280;5284;50.446;7.904;2023-05-09T20:55:57;97681.22;;;14.50;100.00
10474;BME280;5284;50.446;7.904;2023-05-09T21:01:00;97681.75;;;14.46;100.00
10474;BME280;5284;50.446;7.904;2023-05-09T21:06:05;97679.56;;;14.49;100.00
10474;BME280;5284;50.446;7.904;2023-05-09T21:11:07;97677.72;;;14.50;100.00
10474;BME280;5284;50.446;7.904;2023-05-09T21:16:10;97671.38;;;14.43;100.00
10474;BME280;5284;50.446;7.904;2023-05-09T21:21:15;97674.59;;;14.38;100.00
10474;BME280;5284;50.446;7.904;2023-05-09T21:26:17;97667.75;;;14.28;100.00
10474;BME280;5284;50.446;7.904;2023-05-09T21:31:20;97667.41;;;14.31;100.00
10474;BME280;5284;50.446;7.904;2023-05-09T21:36:24;97668.78;;;14.27;100.00
10474;BME280;5284;50.446;7.904;2023-05-09T21:41:27;97670.28;;;14.29;100.00
10474;BME280;5284;50.446;7.904;2023-05-09T21:46:30;97666.09;;;14.27;100.00
10474;BME280;5284;50.446;7.904;2023-05-09T21:51:35;97676.03;;;14.10;100.00
10474;BME280;5284;50.446;7.904;2023-05-09T21:56:38;97664.47;;;14.02;100.00
10474;BME280;5284;50.446;7.904;2023-05-09T22:01:43;97666.69;;;13.90;100.00
10474;BME280;5284;50.446;7.904;2023-05-09T22:06:48;97667.22;;;13.86;100.00
10474;BME280;5284;50.446;7.904;2023-05-09T22:11:51;97674.13;;;13.73;100.00
10474;BME280;5284;50.446;7.904;2023-05-09T22:16:54;97676.47;;;13.60;100.00
10474;BME280;5284;50.446;7.904;2023-05-09T22:21:58;97677.69;;;13.49;100.00
10474;BME280;5284;50.446;7.904;2023-05-09T22:27:01;97686.06;;;13.38;100.00
10474;BME280;5284;50.446;7.904;2023-05-09T22:32:04;97684.59;;;13.28;100.00
10474;BME280;5284;50.446;7.904;2023-05-09T22:37:10;97682.88;;;13.19;100.00
10474;BME280;5284;50.446;7.904;2023-05-09T22:42:13;97680.56;;;13.08;100.00
10474;BME280;5284;50.446;7.904;2023-05-09T22:47:16;97686.06;;;13.06;100.00
10474;BME280;5284;50.446;7.904;2023-05-09T22:52:20;97682.03;;;13.02;100.00
10474;BME280;5284;50.446;7.904;2023-05-09T22:57:23;97680.72;;;12.98;100.00
10474;BME280;5284;50.446;7.904;2023-05-09T23:02:26;97685.16;;;12.90;100.00
10474;BME280;5284;50.446;7.904;2023-05-09T23:07:30;97690.19;;;12.85;100.00
10474;BME280;5284;50.446;7.904;2023-05-09T23:12:33;97690.84;;;12.79;100.00
10474;BME280;5284;50.446;7.904;2023-05-09T23:17:36;97693.34;;;12.72;100.00
10474;BME280;5284;50.446;7.904;2023-05-09T23:22:40;97694.84;;;12.67;100.00
10474;BME280;5284;50.446;7.904;2023-05-09T23:27:43;97695.19;;;12.64;100.00
10474;BME280;5284;50.446;7.904;2023-05-09T23:32:47;97688.66;;;12.58;100.00
10474;BME280;5284;50.446;7.904;2023-05-09T23:37:51;97686.28;;;12.55;100.00
10474;BME280;5284;50.446;7.904;2023-05-09T23:42:54;97696.47;;;12.52;100.00
10474;BME280;5284;50.446;7.904;2023-05-09T23:47:57;97696.63;;;12.42;100.00
10474;BME280;5284;50.446;7.904;2023-05-09T23:53:01;97695.94;;;12.40;100.00
10474;BME280;5284;50.446;7.904;2023-05-09T23:58:05;97692.59;;;12.38;100.00
